createdAt,value
2023-05-02T00:05:16.830Z,11.77
2023-05-02T00:10:39.406Z,11.37
2023-05-02T00:16:02.094Z,17.83
2023-05-02T00:21:24.324Z,16.60
2023-05-02T00:26:46.720Z,16.37
2023-05-02T00:32:09.583Z,14.50
2023-05-02T00:37:32.117Z,15.53
2023-05-02T00:42:54.227Z,15.80
2023-05-02T00:48:18.098Z,16.57
2023-05-02T00:53:41.893Z,13.10
2023-05-02T00:59:07.136Z,16.00
2023-05-02T01:04:54.202Z,15.50
2023-05-02T01:10:25.808Z,16.33
2023-05-02T01:15:51.748Z,15.07
2023-05-02T01:21:14.643Z,14.03
2023-05-02T01:26:50.480Z,16.73
2023-05-02T01:32:16.264Z,15.53
2023-05-02T01:37:39.766Z,15.00
2023-05-02T01:43:05.265Z,13.63
2023-05-02T01:48:28.765Z,13.53
2023-05-02T01:53:53.178Z,16.53
2023-05-02T01:59:20.976Z,18.63
2023-05-02T02:04:46.161Z,14.07
2023-05-02T02:10:08.811Z,16.33
2023-05-02T02:15:35.511Z,16.00
2023-05-02T02:20:59.814Z,18.53
2023-05-02T02:26:22.664Z,18.47
2023-05-02T02:31:45.320Z,17.83
2023-05-02T02:38:00.185Z,24.23
2023-05-02T02:43:44.259Z,23.97
2023-05-02T02:49:28.182Z,22.33
2023-05-02T02:54:57.696Z,18.20
2023-05-02T03:00:22.895Z,19.00
2023-05-02T03:05:46.100Z,20.20
2023-05-02T03:11:10.630Z,15.53
2023-05-02T03:16:38.841Z,14.20
2023-05-02T03:22:05.648Z,13.63
2023-05-02T03:27:31.985Z,13.17
2023-05-02T03:32:57.240Z,17.30
2023-05-02T03:38:19.982Z,8.53
2023-05-02T03:43:44.808Z,12.03
2023-05-02T03:49:07.520Z,10.47
2023-05-02T03:54:33.666Z,11.53
2023-05-02T03:59:56.527Z,10.57
2023-05-02T04:05:23.296Z,9.90
2023-05-02T04:10:46.615Z,6.63
2023-05-02T04:16:10.124Z,11.27
2023-05-02T04:21:37.029Z,7.30
2023-05-02T04:27:01.454Z,9.13
2023-05-02T04:32:25.282Z,8.60
2023-05-02T04:37:48.889Z,12.03
2023-05-02T04:43:12.875Z,5.90
2023-05-02T04:48:42.341Z,10.67
2023-05-02T04:54:04.849Z,5.63
2023-05-02T04:59:27.385Z,8.30
2023-05-02T05:04:49.653Z,9.77
2023-05-02T05:10:13.456Z,6.23
2023-05-02T05:15:40.472Z,11.20
2023-05-02T05:21:03.400Z,6.60
2023-05-02T05:26:26.865Z,9.97
2023-05-02T05:31:50.104Z,8.70
2023-05-02T05:37:14.472Z,9.77
2023-05-02T05:42:37.653Z,6.67
2023-05-02T05:48:06.197Z,8.57
2023-05-02T05:53:34.537Z,11.13
2023-05-02T05:58:59.032Z,7.53
2023-05-02T06:04:22.003Z,8.77
2023-05-02T06:09:46.945Z,9.50
2023-05-02T06:15:10.893Z,8.00
2023-05-02T06:20:36.283Z,10.87
2023-05-02T06:26:02.986Z,8.13
2023-05-02T06:31:25.541Z,8.07
2023-05-02T06:36:58.388Z,8.40
2023-05-02T06:42:20.833Z,7.73
2023-05-02T06:47:43.240Z,7.47
2023-05-02T06:53:06.186Z,7.20
2023-05-02T06:58:30.251Z,10.63
2023-05-02T07:03:52.844Z,6.53
2023-05-02T07:09:15.561Z,8.00
2023-05-02T07:14:38.052Z,8.13
2023-05-02T07:20:00.565Z,10.50
2023-05-02T07:25:23.293Z,8.60
2023-05-02T07:30:46.125Z,8.23
2023-05-02T07:36:08.722Z,10.07
2023-05-02T07:41:31.216Z,7.27
2023-05-02T07:46:53.675Z,13.50
2023-05-02T07:52:15.815Z,9.87
2023-05-02T07:57:38.046Z,9.70
2023-05-02T08:03:00.780Z,8.17
2023-05-02T08:08:23.635Z,8.77
2023-05-02T08:13:45.998Z,9.70
2023-05-02T08:19:08.662Z,7.23
2023-05-02T08:24:31.519Z,8.63
2023-05-02T08:29:53.785Z,10.17
2023-05-02T08:35:16.414Z,5.20
2023-05-02T08:40:42.891Z,8.70
2023-05-02T08:46:09.750Z,4.20
2023-05-02T08:51:33.477Z,4.60
2023-05-02T08:56:56.942Z,4.70
2023-05-02T09:02:37.578Z,5.97
2023-05-02T09:07:59.918Z,8.10
2023-05-02T09:13:31.320Z,5.60
2023-05-02T09:18:55.379Z,5.03
2023-05-02T09:24:22.406Z,6.03
2023-05-02T09:29:46.183Z,4.63
2023-05-02T09:35:08.892Z,4.73
2023-05-02T09:40:32.668Z,5.27
2023-05-02T09:46:05.575Z,4.97
2023-05-02T09:51:27.953Z,4.87
2023-05-02T09:56:57.341Z,3.77
2023-05-02T10:02:21.964Z,3.70
2023-05-02T10:07:46.645Z,4.32
2023-05-02T10:13:09.916Z,5.50
2023-05-02T10:18:48.552Z,8.87
2023-05-02T10:24:12.442Z,4.25
2023-05-02T10:29:36.182Z,3.83
2023-05-02T10:35:04.098Z,8.77
2023-05-02T10:40:27.381Z,6.10
2023-05-02T10:45:49.887Z,6.22
2023-05-02T10:51:29.088Z,2.25
2023-05-02T10:57:06.544Z,3.63
2023-05-02T11:02:31.750Z,4.40
2023-05-02T11:08:16.811Z,7.10
2023-05-02T11:13:49.338Z,3.70
2023-05-02T11:19:11.902Z,2.00
2023-05-02T11:24:44.877Z,1.70
2023-05-02T11:30:09.172Z,3.97
2023-05-02T11:35:32.094Z,3.33
2023-05-02T11:40:59.098Z,7.07
2023-05-02T11:46:21.739Z,7.33
2023-05-02T11:51:44.785Z,7.50
2023-05-02T11:57:09.923Z,11.20
2023-05-02T12:02:41.120Z,8.33
2023-05-02T12:08:03.452Z,10.83
2023-05-02T12:13:26.932Z,11.17
2023-05-02T12:18:50.017Z,10.23
2023-05-02T12:24:14.700Z,13.70
2023-05-02T12:29:38.766Z,10.57
2023-05-02T12:35:04.000Z,8.97
2023-05-02T12:40:26.845Z,5.27
2023-05-02T12:45:50.117Z,10.20
2023-05-02T12:51:24.104Z,6.83
2023-05-02T12:56:47.374Z,5.53
2023-05-02T13:02:10.176Z,7.23
2023-05-02T13:07:33.145Z,3.53
2023-05-02T13:12:56.862Z,7.10
2023-05-02T13:18:19.331Z,5.67
2023-05-02T13:23:45.862Z,10.27
2023-05-02T13:29:12.017Z,4.47
2023-05-02T13:34:34.360Z,4.93
2023-05-02T13:39:56.520Z,7.40
2023-05-02T13:45:21.817Z,11.20
2023-05-02T13:50:45.030Z,8.73
2023-05-02T13:56:10.464Z,11.33
2023-05-02T14:01:34.209Z,10.37
2023-05-02T14:06:57.529Z,10.43
2023-05-02T14:12:20.181Z,7.80
2023-05-02T14:17:42.328Z,5.80
2023-05-02T14:23:06.228Z,8.47
2023-05-02T14:28:29.989Z,5.77
2023-05-02T14:33:52.368Z,5.97
2023-05-02T14:39:15.332Z,6.67
2023-05-02T14:44:37.748Z,7.07
2023-05-02T14:50:00.354Z,8.37
2023-05-02T14:55:22.919Z,8.33
2023-05-02T15:00:45.495Z,7.07
2023-05-02T15:06:07.798Z,5.30
2023-05-02T15:11:30.821Z,6.20
2023-05-02T15:16:53.572Z,6.83
2023-05-02T15:22:18.318Z,5.97
2023-05-02T15:27:43.019Z,5.83
2023-05-02T15:33:05.554Z,5.37
2023-05-02T15:38:28.241Z,12.23
2023-05-02T15:43:50.400Z,7.50
2023-05-02T15:49:13.752Z,3.13
2023-05-02T15:54:39.388Z,5.20
2023-05-02T16:00:01.895Z,6.70
2023-05-02T16:05:26.608Z,7.07
2023-05-02T16:10:49.321Z,6.10
2023-05-02T16:16:12.060Z,6.83
2023-05-02T16:21:34.322Z,5.07
2023-05-02T16:26:56.569Z,7.23
2023-05-02T16:32:19.057Z,4.53
2023-05-02T16:37:42.002Z,8.97
2023-05-02T16:43:04.642Z,6.83
2023-05-02T16:48:27.083Z,4.43
2023-05-02T16:53:49.600Z,6.60
2023-05-02T16:59:12.130Z,3.90
2023-05-02T17:04:34.595Z,9.30
2023-05-02T17:09:57.509Z,11.60
2023-05-02T17:15:20.154Z,8.60
2023-05-02T17:20:46.717Z,5.13
2023-05-02T17:26:14.466Z,8.90
2023-05-02T17:31:38.081Z,6.00
2023-05-02T17:37:00.706Z,6.60
2023-05-02T17:42:23.199Z,6.57
2023-05-02T17:47:45.891Z,3.80
2023-05-02T17:53:08.476Z,5.90
2023-05-02T17:58:30.693Z,8.10
2023-05-02T18:03:53.276Z,9.37
2023-05-02T18:09:15.498Z,11.53
2023-05-02T18:14:38.008Z,7.03
2023-05-02T18:20:00.618Z,7.80
2023-05-02T18:25:23.204Z,5.60
2023-05-02T18:30:46.101Z,9.37
2023-05-02T18:36:08.684Z,9.90
2023-05-02T18:41:31.458Z,6.83
2023-05-02T18:46:53.817Z,10.97
2023-05-02T18:52:16.286Z,10.57
2023-05-02T18:57:38.709Z,9.20
2023-05-02T19:03:01.374Z,5.53
2023-05-02T19:08:23.983Z,11.10
2023-05-02T19:13:46.436Z,9.63
2023-05-02T19:19:08.796Z,5.90
2023-05-02T19:24:31.487Z,10.67
2023-05-02T19:29:54.562Z,6.87
2023-05-02T19:35:17.011Z,9.27
2023-05-02T19:40:39.322Z,5.97
2023-05-02T19:46:01.752Z,5.80
2023-05-02T19:51:26.752Z,13.07
2023-05-02T19:56:49.027Z,9.53
2023-05-02T20:02:11.613Z,6.00
2023-05-02T20:07:34.243Z,9.20
2023-05-02T20:12:56.596Z,14.30
2023-05-02T20:18:19.161Z,12.53
2023-05-02T20:23:43.612Z,11.20
2023-05-02T20:29:07.778Z,9.67
2023-05-02T20:34:30.233Z,10.87
2023-05-02T20:39:52.626Z,8.27
2023-05-02T20:45:16.552Z,10.80
2023-05-02T20:50:39.177Z,11.70
2023-05-02T20:56:01.615Z,10.17
2023-05-02T21:01:23.903Z,20.60
2023-05-02T21:06:47.182Z,11.23
2023-05-02T21:12:09.825Z,14.10
2023-05-02T21:17:32.067Z,8.93
2023-05-02T21:22:54.719Z,14.30
2023-05-02T21:28:17.214Z,9.13
2023-05-02T21:33:41.468Z,8.10
2023-05-02T21:39:04.054Z,9.83
2023-05-02T21:44:26.930Z,8.50
2023-05-02T21:49:49.592Z,9.23
2023-05-02T21:55:11.871Z,7.57
2023-05-02T22:00:36.751Z,6.27
2023-05-02T22:06:01.096Z,6.33
2023-05-02T22:11:24.331Z,7.57
2023-05-02T22:16:47.354Z,3.83
2023-05-02T22:22:10.667Z,5.80
2023-05-02T22:27:33.396Z,8.27
2023-05-02T22:32:56.041Z,4.93
2023-05-02T22:38:19.914Z,7.27
2023-05-02T22:43:42.300Z,4.70
2023-05-02T22:49:06.107Z,8.17
2023-05-02T22:54:28.297Z,5.47
2023-05-02T22:59:50.673Z,3.67
2023-05-02T23:05:14.368Z,2.50
2023-05-02T23:10:36.643Z,4.97
2023-05-02T23:15:59.484Z,6.50
2023-05-02T23:21:21.980Z,6.40
2023-05-02T23:26:44.376Z,3.50
2023-05-02T23:32:08.147Z,6.47
2023-05-02T23:37:30.548Z,7.67
2023-05-02T23:42:53.924Z,3.93
2023-05-02T23:48:16.253Z,6.27
2023-05-02T23:53:38.666Z,4.93
2023-05-02T23:59:01.101Z,7.40
